createdAt,value
2018-12-16T00:02:29.031Z,19.03
2018-12-16T00:04:58.358Z,19.10
2018-12-16T00:07:27.663Z,18.93
2018-12-16T00:09:56.964Z,20.73
2018-12-16T00:12:26.248Z,21.47
2018-12-16T00:14:55.522Z,20.10
2018-12-16T00:17:24.850Z,21.13
2018-12-16T00:19:54.209Z,20.40
2018-12-16T00:22:29.715Z,21.17
2018-12-16T00:24:55.702Z,21.23
2018-12-16T00:27:24.977Z,21.47
2018-12-16T00:29:54.288Z,21.07
2018-12-16T00:32:23.563Z,21.00
2018-12-16T00:34:52.934Z,21.30
2018-12-16T00:37:22.181Z,23.87
2018-12-16T00:39:51.433Z,22.00
2018-12-16T00:42:20.725Z,21.77
2018-12-16T00:44:49.995Z,23.33
2018-12-16T00:47:19.310Z,23.20
2018-12-16T00:49:48.612Z,22.80
2018-12-16T00:52:17.882Z,21.23
2018-12-16T00:54:47.129Z,21.47
2018-12-16T00:59:37.848Z,21.17
2018-12-16T01:02:11.539Z,20.73
2018-12-16T01:04:40.828Z,21.13
2018-12-16T01:07:10.150Z,23.20
2018-12-16T01:09:39.432Z,20.17
2018-12-16T01:12:08.726Z,21.57
2018-12-16T01:14:38.015Z,21.37
2018-12-16T01:17:07.374Z,21.67
2018-12-16T01:19:36.568Z,20.57
2018-12-16T01:22:05.849Z,19.93
2018-12-16T01:24:35.194Z,21.10
2018-12-16T01:27:04.435Z,21.03
2018-12-16T01:29:33.676Z,21.10
2018-12-16T01:32:03.008Z,20.43
2018-12-16T01:34:32.420Z,20.50
2018-12-16T01:37:01.699Z,20.57
2018-12-16T01:39:31.014Z,20.33
2018-12-16T01:42:00.376Z,20.37
2018-12-16T01:44:29.650Z,19.87
2018-12-16T01:46:58.946Z,21.63
2018-12-16T01:49:28.304Z,20.13
2018-12-16T01:51:57.547Z,21.50
2018-12-16T01:54:26.871Z,19.97
2018-12-16T01:56:56.152Z,19.30
2018-12-16T01:59:25.366Z,19.27
2018-12-16T02:01:55.591Z,18.90
2018-12-16T02:04:25.335Z,18.93
2018-12-16T02:06:54.661Z,19.30
2018-12-16T02:09:24.383Z,18.23
2018-12-16T02:11:53.698Z,19.03
2018-12-16T02:14:23.063Z,18.03
2018-12-16T02:16:52.269Z,18.83
2018-12-16T02:19:21.623Z,17.83
2018-12-16T02:21:50.885Z,17.63
2018-12-16T02:24:20.146Z,17.80
2018-12-16T02:26:49.438Z,17.67
2018-12-16T02:29:18.736Z,17.57
2018-12-16T02:31:48.041Z,17.10
2018-12-16T02:34:17.543Z,17.67
2018-12-16T02:36:46.848Z,17.43
2018-12-16T02:39:16.168Z,17.07
2018-12-16T02:41:45.428Z,17.67
2018-12-16T02:44:14.672Z,16.97
2018-12-16T02:46:43.949Z,15.63
2018-12-16T02:49:13.251Z,15.87
2018-12-16T02:51:42.535Z,17.77
2018-12-16T02:54:11.798Z,16.97
2018-12-16T02:56:41.023Z,16.10
2018-12-16T02:59:10.279Z,16.63
2018-12-16T03:01:41.668Z,17.30
2018-12-16T03:04:10.929Z,16.23
2018-12-16T03:06:40.305Z,17.57
2018-12-16T03:09:09.560Z,16.03
2018-12-16T03:11:38.782Z,16.53
2018-12-16T03:14:08.040Z,16.93
2018-12-16T03:16:37.352Z,15.63
2018-12-16T03:19:06.651Z,16.60
2018-12-16T03:21:35.897Z,17.60
2018-12-16T03:24:05.145Z,17.13
2018-12-16T03:26:36.096Z,17.67
2018-12-16T03:29:05.841Z,17.57
2018-12-16T03:31:35.147Z,17.07
2018-12-16T03:34:04.360Z,18.33
2018-12-16T03:36:33.652Z,17.63
2018-12-16T03:39:04.568Z,18.47
2018-12-16T03:41:34.194Z,19.30
2018-12-16T03:44:03.598Z,18.13
2018-12-16T03:46:32.860Z,17.30
2018-12-16T03:49:02.203Z,18.40
2018-12-16T03:51:31.501Z,19.20
2018-12-16T03:54:00.792Z,18.40
2018-12-16T03:56:30.107Z,19.77
2018-12-16T03:59:10.360Z,19.30
2018-12-16T04:01:39.599Z,19.30
2018-12-16T04:04:08.894Z,20.90
2018-12-16T04:06:38.112Z,20.83
2018-12-16T04:09:07.606Z,21.50
2018-12-16T04:11:36.952Z,21.60
2018-12-16T04:14:06.220Z,22.90
2018-12-16T04:16:35.608Z,22.40
2018-12-16T04:19:04.844Z,20.60
2018-12-16T04:21:34.175Z,22.80
2018-12-16T04:24:03.487Z,21.97
2018-12-16T04:26:32.766Z,23.53
2018-12-16T04:29:02.370Z,21.57
2018-12-16T04:31:31.749Z,22.57
2018-12-16T04:34:01.030Z,21.77
2018-12-16T04:36:30.265Z,21.57
2018-12-16T04:38:59.593Z,22.43
2018-12-16T04:41:28.820Z,21.53
2018-12-16T04:43:58.237Z,20.93
2018-12-16T04:46:27.655Z,23.50
2018-12-16T04:48:56.871Z,20.90
2018-12-16T04:51:26.184Z,21.10
2018-12-16T04:53:55.509Z,21.27
2018-12-16T04:56:24.753Z,21.47
2018-12-16T04:59:00.682Z,22.23
2018-12-16T05:01:29.995Z,22.10
2018-12-16T05:03:59.263Z,20.63
2018-12-16T05:06:28.616Z,21.43
2018-12-16T05:08:57.854Z,22.70
2018-12-16T05:11:27.067Z,22.50
2018-12-16T05:13:56.386Z,22.33
2018-12-16T05:16:25.679Z,21.83
2018-12-16T05:18:55.009Z,22.83
2018-12-16T05:21:24.329Z,20.70
2018-12-16T05:23:53.590Z,19.83
2018-12-16T05:26:22.763Z,20.67
2018-12-16T05:28:52.012Z,20.10
2018-12-16T05:31:21.246Z,19.20
2018-12-16T05:33:50.499Z,19.13
2018-12-16T05:36:19.775Z,18.63
2018-12-16T05:38:49.763Z,18.50
2018-12-16T05:41:19.131Z,19.57
2018-12-16T05:43:48.339Z,19.10
2018-12-16T05:46:17.570Z,20.97
2018-12-16T05:48:46.863Z,23.93
2018-12-16T05:51:16.177Z,23.17
2018-12-16T05:53:48.536Z,24.73
2018-12-16T05:56:16.910Z,23.83
2018-12-16T05:58:46.193Z,25.50
2018-12-16T06:01:15.492Z,27.13
2018-12-16T06:03:44.736Z,25.20
2018-12-16T06:06:14.026Z,23.97
2018-12-16T06:08:43.282Z,24.53
2018-12-16T06:11:12.500Z,25.07
2018-12-16T06:13:41.702Z,25.13
2018-12-16T06:16:11.008Z,25.00
2018-12-16T06:18:40.263Z,22.70
2018-12-16T06:21:09.552Z,27.40
2018-12-16T06:23:38.879Z,26.17
2018-12-16T06:26:08.195Z,25.87
2018-12-16T06:28:37.493Z,24.60
2018-12-16T06:31:06.800Z,28.27
2018-12-16T06:33:36.035Z,27.03
2018-12-16T06:36:05.300Z,28.17
2018-12-16T06:38:34.555Z,25.43
2018-12-16T06:41:03.813Z,28.23
2018-12-16T06:43:33.125Z,28.00
2018-12-16T06:46:02.443Z,28.50
2018-12-16T06:48:31.682Z,25.20
2018-12-16T06:51:01.028Z,27.87
2018-12-16T06:53:30.225Z,26.80
2018-12-16T06:56:06.753Z,26.87
2018-12-16T06:58:36.495Z,27.80
2018-12-16T07:01:05.760Z,28.47
2018-12-16T07:03:34.937Z,26.50
2018-12-16T07:06:04.213Z,26.27
2018-12-16T07:08:33.495Z,30.17
2018-12-16T07:11:02.743Z,27.93
2018-12-16T07:13:32.031Z,26.90
2018-12-16T07:16:01.456Z,31.80
2018-12-16T07:18:30.893Z,30.17
2018-12-16T07:21:00.215Z,32.17
2018-12-16T07:23:29.515Z,30.27
2018-12-16T07:25:58.825Z,29.87
2018-12-16T07:28:28.283Z,27.63
2018-12-16T07:30:57.518Z,31.80
2018-12-16T07:33:26.792Z,29.80
2018-12-16T07:35:56.157Z,31.47
2018-12-16T07:38:25.432Z,28.03
2018-12-16T07:40:54.728Z,32.10
2018-12-16T07:43:24.051Z,26.67
2018-12-16T07:45:53.322Z,29.63
2018-12-16T07:48:22.846Z,26.73
2018-12-16T07:50:52.246Z,28.80
2018-12-16T07:53:21.527Z,25.37
2018-12-16T07:55:50.802Z,28.83
2018-12-16T07:58:20.127Z,28.83
2018-12-16T08:00:49.384Z,29.43
2018-12-16T08:03:18.678Z,28.13
2018-12-16T08:05:47.991Z,27.87
2018-12-16T08:08:17.399Z,25.47
2018-12-16T08:10:46.667Z,27.60
2018-12-16T08:13:15.951Z,25.50
2018-12-16T08:15:45.205Z,25.90
2018-12-16T08:18:14.434Z,24.20
2018-12-16T08:20:43.695Z,24.20
2018-12-16T08:23:14.100Z,25.40
2018-12-16T08:25:43.328Z,26.63
2018-12-16T08:28:12.613Z,25.40
2018-12-16T08:30:42.006Z,23.97
2018-12-16T08:33:11.264Z,24.97
2018-12-16T08:35:40.552Z,26.30
2018-12-16T08:38:09.861Z,25.50
2018-12-16T08:40:39.329Z,27.00
2018-12-16T08:43:08.870Z,26.07
2018-12-16T08:45:38.192Z,24.03
2018-12-16T08:48:07.499Z,25.10
2018-12-16T08:50:36.883Z,24.13
2018-12-16T08:53:06.186Z,25.03
2018-12-16T08:55:35.482Z,24.37
2018-12-16T08:58:04.811Z,24.20
2018-12-16T09:00:34.072Z,27.20
2018-12-16T09:03:03.276Z,29.10
2018-12-16T09:05:32.534Z,32.00
2018-12-16T09:08:01.803Z,37.10
2018-12-16T09:10:34.280Z,39.47
2018-12-16T09:13:02.699Z,35.40
2018-12-16T09:15:31.928Z,36.40
2018-12-16T09:18:01.280Z,39.23
2018-12-16T09:20:30.618Z,39.10
2018-12-16T09:22:59.857Z,36.53
2018-12-16T09:25:29.244Z,33.50
2018-12-16T09:27:58.495Z,47.07
2018-12-16T09:30:27.745Z,36.07
2018-12-16T09:32:56.954Z,32.90
2018-12-16T09:35:26.188Z,32.43
2018-12-16T09:37:55.478Z,33.20
2018-12-16T09:40:24.718Z,33.30
2018-12-16T09:42:54.086Z,32.90
2018-12-16T09:45:23.412Z,34.83
2018-12-16T09:47:52.878Z,37.60
2018-12-16T09:50:22.143Z,35.93
2018-12-16T09:52:51.585Z,37.67
2018-12-16T09:55:20.940Z,33.07
2018-12-16T09:57:50.252Z,30.87
2018-12-16T10:00:19.649Z,35.73
2018-12-16T10:02:55.307Z,33.57
2018-12-16T10:05:24.595Z,33.47
2018-12-16T10:07:53.866Z,36.50
2018-12-16T10:10:23.171Z,35.20
2018-12-16T10:12:52.583Z,33.73
2018-12-16T10:15:21.824Z,36.77
2018-12-16T10:17:51.144Z,35.37
2018-12-16T10:20:20.479Z,32.87
2018-12-16T10:22:49.768Z,33.30
2018-12-16T10:25:19.055Z,29.53
2018-12-16T10:27:48.328Z,31.77
2018-12-16T10:30:17.602Z,31.23
2018-12-16T10:32:46.859Z,30.23
2018-12-16T10:35:16.143Z,31.73
2018-12-16T10:37:45.348Z,34.20
2018-12-16T10:40:14.671Z,31.80
2018-12-16T10:42:43.943Z,29.83
2018-12-16T10:45:13.234Z,29.83
2018-12-16T10:47:42.834Z,29.97
2018-12-16T10:50:12.320Z,30.07
2018-12-16T10:52:41.616Z,29.03
2018-12-16T10:55:10.999Z,33.53
2018-12-16T10:57:40.239Z,30.53
2018-12-16T11:00:16.592Z,30.50
2018-12-16T11:02:45.984Z,29.57
2018-12-16T11:05:15.639Z,31.20
2018-12-16T11:07:44.985Z,29.03
2018-12-16T11:10:14.321Z,34.17
2018-12-16T11:12:43.999Z,32.30
2018-12-16T11:15:13.413Z,30.67
2018-12-16T11:17:42.711Z,30.37
2018-12-16T11:20:12.020Z,29.70
2018-12-16T11:22:41.299Z,29.73
2018-12-16T11:25:13.228Z,31.57
2018-12-16T11:27:42.507Z,34.63
2018-12-16T11:30:12.480Z,30.07
2018-12-16T11:32:41.784Z,30.47
2018-12-16T11:35:11.028Z,31.30
2018-12-16T11:37:40.306Z,30.53
2018-12-16T11:40:09.839Z,34.80
2018-12-16T11:42:39.027Z,31.63
2018-12-16T11:45:08.431Z,33.47
2018-12-16T11:47:37.704Z,30.60
2018-12-16T11:50:07.118Z,30.20
2018-12-16T11:52:36.348Z,29.47
2018-12-16T11:55:12.505Z,30.43
2018-12-16T11:57:37.160Z,30.97
2018-12-16T12:00:07.244Z,32.10
2018-12-16T12:02:36.570Z,30.27
2018-12-16T12:05:05.968Z,30.03
2018-12-16T12:07:35.335Z,30.13
2018-12-16T12:10:05.943Z,28.77
2018-12-16T12:12:35.169Z,28.80
2018-12-16T12:15:04.647Z,31.03
2018-12-16T12:17:33.904Z,32.13
2018-12-16T12:20:03.259Z,31.17
2018-12-16T12:22:32.473Z,31.80
2018-12-16T12:25:01.714Z,29.13
2018-12-16T12:27:30.944Z,29.10
2018-12-16T12:30:00.231Z,29.03
2018-12-16T12:32:29.479Z,29.37
2018-12-16T12:34:58.727Z,28.30
2018-12-16T12:37:28.007Z,28.90
2018-12-16T12:39:57.306Z,34.30
2018-12-16T12:42:26.508Z,32.17
2018-12-16T12:44:55.830Z,34.20
2018-12-16T12:47:25.133Z,34.03
2018-12-16T12:49:54.371Z,35.77
2018-12-16T12:52:23.607Z,29.93
2018-12-16T12:54:52.854Z,31.23
2018-12-16T12:57:22.087Z,34.87
2018-12-16T12:59:51.390Z,35.33
2018-12-16T13:02:20.662Z,28.60
2018-12-16T13:04:49.962Z,28.97
2018-12-16T13:07:19.262Z,32.00
2018-12-16T13:09:48.462Z,31.50
2018-12-16T13:12:17.675Z,29.97
2018-12-16T13:14:47.016Z,28.90
2018-12-16T13:17:16.356Z,31.10
2018-12-16T13:19:46.948Z,31.80
2018-12-16T13:22:16.239Z,32.27
2018-12-16T13:26:54.611Z,35.40
2018-12-16T13:29:24.118Z,35.53
2018-12-16T13:31:53.415Z,32.63
2018-12-16T13:34:22.790Z,32.50
2018-12-16T13:36:52.056Z,32.70
2018-12-16T13:39:21.854Z,30.60
2018-12-16T13:41:52.567Z,32.57
2018-12-16T13:44:22.175Z,34.83
2018-12-16T13:46:51.533Z,31.27
2018-12-16T13:49:27.376Z,29.93
2018-12-16T13:51:56.670Z,32.60
2018-12-16T13:54:25.953Z,32.87
2018-12-16T13:56:55.280Z,33.10
2018-12-16T13:59:24.539Z,30.23
2018-12-16T14:01:53.864Z,31.47
2018-12-16T14:04:23.091Z,31.07
2018-12-16T14:06:52.415Z,34.07
2018-12-16T14:09:21.738Z,32.83
2018-12-16T14:11:51.136Z,29.50
2018-12-16T14:14:20.376Z,33.20
2018-12-16T14:16:49.663Z,29.67
2018-12-16T14:19:18.926Z,29.37
2018-12-16T14:21:48.169Z,30.60
2018-12-16T14:24:17.533Z,30.30
2018-12-16T14:26:46.872Z,31.80
2018-12-16T14:29:16.095Z,33.07
2018-12-16T14:31:45.457Z,36.17
2018-12-16T14:34:14.736Z,31.83
2018-12-16T14:36:44.043Z,29.27
2018-12-16T14:39:13.296Z,32.33
2018-12-16T14:41:42.484Z,29.80
2018-12-16T14:44:11.763Z,29.70
2018-12-16T14:46:41.142Z,30.80
2018-12-16T14:49:10.497Z,29.30
2018-12-16T14:51:39.848Z,33.60
2018-12-16T14:54:09.112Z,31.23
2018-12-16T14:56:38.564Z,30.03
2018-12-16T14:59:07.807Z,32.00
2018-12-16T15:01:37.099Z,29.07
2018-12-16T15:04:06.368Z,29.10
2018-12-16T15:06:35.779Z,28.77
2018-12-16T15:09:07.054Z,30.70
2018-12-16T15:11:36.454Z,32.50
2018-12-16T15:14:05.752Z,31.60
2018-12-16T15:16:35.035Z,33.73
2018-12-16T15:19:04.512Z,32.20
2018-12-16T15:21:33.767Z,32.60
2018-12-16T15:24:02.992Z,31.27
2018-12-16T15:26:32.286Z,31.17
2018-12-16T15:29:01.580Z,35.93
2018-12-16T15:31:30.836Z,44.03
2018-12-16T15:34:00.229Z,33.50
2018-12-16T15:36:29.571Z,32.50
2018-12-16T15:38:58.823Z,30.97
2018-12-16T15:41:28.072Z,28.87
2018-12-16T15:43:57.421Z,31.10
2018-12-16T15:46:26.678Z,39.60
2018-12-16T15:48:55.965Z,39.37
2018-12-16T15:51:25.269Z,38.77
2018-12-16T15:53:54.687Z,31.93
2018-12-16T15:56:23.979Z,33.13
2018-12-16T15:58:53.208Z,33.20
2018-12-16T16:01:22.504Z,30.93
2018-12-16T16:03:51.761Z,28.67
2018-12-16T16:06:21.016Z,29.37
2018-12-16T16:08:50.380Z,30.80
2018-12-16T16:11:19.599Z,29.30
2018-12-16T16:13:48.818Z,29.93
2018-12-16T16:16:18.119Z,30.10
2018-12-16T16:18:47.407Z,30.23
2018-12-16T16:21:16.615Z,29.80
2018-12-16T16:23:45.843Z,32.80
2018-12-16T16:26:16.382Z,34.13
2018-12-16T16:28:45.995Z,30.67
2018-12-16T16:31:15.324Z,29.87
2018-12-16T16:33:44.595Z,28.57
2018-12-16T16:36:13.817Z,30.43
2018-12-16T16:38:43.059Z,31.60
2018-12-16T16:41:12.393Z,31.30
2018-12-16T16:43:41.699Z,34.13
2018-12-16T16:46:11.007Z,33.97
2018-12-16T16:48:40.379Z,34.27
2018-12-16T16:51:09.659Z,31.73
2018-12-16T16:53:45.380Z,32.20
2018-12-16T16:56:14.688Z,33.73
2018-12-16T16:58:44.052Z,32.90
2018-12-16T17:01:14.718Z,33.97
2018-12-16T17:03:44.314Z,33.13
2018-12-16T17:06:13.624Z,33.27
2018-12-16T17:08:42.963Z,30.90
2018-12-16T17:11:12.362Z,31.63
2018-12-16T17:13:41.695Z,31.53
2018-12-16T17:16:11.147Z,33.07
2018-12-16T17:18:40.442Z,30.90
2018-12-16T17:21:09.784Z,31.83
2018-12-16T17:23:39.137Z,31.27
2018-12-16T17:26:08.457Z,32.97
2018-12-16T17:28:37.731Z,32.70
2018-12-16T17:31:06.948Z,31.63
2018-12-16T17:33:36.256Z,33.10
2018-12-16T17:36:05.519Z,34.30
2018-12-16T17:38:34.846Z,34.57
2018-12-16T17:41:04.187Z,33.97
2018-12-16T17:43:33.474Z,36.50
2018-12-16T17:46:02.769Z,35.30
2018-12-16T17:48:32.035Z,32.53
2018-12-16T17:51:01.328Z,33.77
2018-12-16T17:53:30.611Z,35.93
2018-12-16T17:56:00.135Z,32.73
2018-12-16T17:58:29.572Z,35.17
2018-12-16T18:00:58.835Z,36.00
2018-12-16T18:03:28.096Z,40.27
2018-12-16T18:05:57.401Z,41.83
2018-12-16T18:08:26.711Z,40.70
2018-12-16T18:10:55.961Z,42.17
2018-12-16T18:13:25.241Z,42.27
2018-12-16T18:15:54.535Z,41.00
2018-12-16T18:18:23.846Z,40.30
2018-12-16T18:20:53.175Z,40.93
2018-12-16T18:23:29.463Z,43.00
2018-12-16T18:25:53.943Z,43.27
2018-12-16T18:28:23.239Z,42.30
2018-12-16T18:30:52.548Z,42.03
2018-12-16T18:33:21.954Z,36.90
2018-12-16T18:35:51.271Z,39.07
2018-12-16T18:38:20.580Z,39.60
2018-12-16T18:40:49.827Z,38.90
2018-12-16T18:43:19.121Z,40.17
2018-12-16T18:45:48.344Z,39.77
2018-12-16T18:48:17.590Z,43.03
2018-12-16T18:50:46.838Z,43.80
2018-12-16T18:53:16.113Z,41.67
2018-12-16T18:55:45.382Z,40.33
2018-12-16T18:58:14.711Z,42.57
2018-12-16T19:00:47.055Z,39.80
2018-12-16T19:03:16.875Z,40.87
2018-12-16T19:06:14.581Z,40.60
2018-12-16T19:08:43.848Z,43.67
2018-12-16T19:11:24.604Z,42.10
2018-12-16T19:13:54.714Z,42.30
2018-12-16T19:16:29.704Z,43.23
2018-12-16T19:19:06.989Z,42.03
2018-12-16T19:21:44.948Z,41.23
2018-12-16T19:24:34.729Z,39.50
2018-12-16T19:36:12.374Z,43.80
2018-12-16T19:39:14.444Z,40.07
2018-12-16T19:41:44.336Z,39.83
2018-12-16T19:44:14.351Z,41.00
2018-12-16T19:46:44.201Z,37.63
2018-12-16T19:49:14.146Z,38.47
2018-12-16T19:51:43.997Z,39.60
2018-12-16T19:54:13.898Z,39.73
2018-12-16T19:56:44.025Z,39.73
2018-12-16T19:59:13.897Z,42.93
2018-12-16T20:01:44.099Z,45.33
2018-12-16T20:04:19.887Z,49.90
2018-12-16T20:06:49.683Z,52.30
2018-12-16T20:09:19.451Z,53.60
2018-12-16T20:11:49.354Z,50.73
2018-12-16T20:14:19.818Z,49.20
2018-12-16T20:16:50.015Z,47.43
2018-12-16T20:19:20.102Z,49.00
2018-12-16T20:21:49.970Z,46.43
2018-12-16T20:24:19.833Z,46.53
2018-12-16T20:26:50.091Z,46.17
2018-12-16T20:29:21.104Z,44.70
2018-12-16T20:31:52.111Z,45.13
2018-12-16T20:34:22.759Z,44.10
2018-12-16T20:36:53.198Z,43.90
2018-12-16T20:39:23.819Z,42.67
2018-12-16T20:41:54.665Z,41.10
2018-12-16T20:44:25.802Z,42.27
2018-12-16T20:46:57.275Z,40.20
2018-12-16T20:49:28.040Z,40.67
2018-12-16T20:51:58.882Z,41.07
2018-12-16T20:54:30.273Z,40.67
2018-12-16T20:57:01.865Z,40.23
2018-12-16T20:59:33.470Z,40.77
2018-12-16T21:02:05.496Z,39.83
2018-12-16T21:04:36.821Z,39.47
2018-12-16T21:07:08.107Z,38.03
2018-12-16T21:09:38.910Z,38.20
2018-12-16T21:12:14.929Z,36.60
2018-12-16T21:14:50.980Z,36.10
2018-12-16T21:17:26.883Z,34.03
2018-12-16T21:19:57.479Z,33.23
2018-12-16T21:22:27.883Z,33.83
2018-12-16T21:24:57.985Z,33.37
2018-12-16T21:27:27.668Z,31.87
2018-12-16T21:29:56.962Z,31.43
2018-12-16T21:32:26.356Z,30.73
2018-12-16T21:34:55.628Z,32.10
2018-12-16T21:37:25.758Z,32.43
2018-12-16T21:39:55.786Z,32.53
2018-12-16T21:42:25.821Z,31.00
2018-12-16T21:44:56.042Z,32.20
2018-12-16T21:47:26.088Z,32.10
2018-12-16T21:49:55.980Z,33.13
2018-12-16T21:52:26.190Z,30.77
2018-12-16T21:54:56.095Z,30.80
2018-12-16T21:57:32.828Z,31.40
2018-12-16T21:59:59.002Z,32.43
2018-12-16T22:02:29.484Z,32.60
2018-12-16T22:04:59.539Z,29.03
2018-12-16T22:07:29.440Z,29.07
2018-12-16T22:09:59.626Z,28.27
2018-12-16T22:12:29.554Z,27.63
2018-12-16T22:14:59.532Z,28.57
2018-12-16T22:17:29.565Z,31.70
2018-12-16T22:19:59.376Z,29.40
2018-12-16T22:22:29.472Z,28.57
2018-12-16T22:24:59.712Z,27.73
2018-12-16T22:27:29.626Z,29.17
2018-12-16T22:29:59.739Z,27.37
2018-12-16T22:32:29.674Z,27.87
2018-12-16T22:34:59.822Z,29.73
2018-12-16T22:37:29.245Z,26.77
2018-12-16T22:39:58.523Z,27.50
2018-12-16T22:42:27.742Z,26.47
2018-12-16T22:44:57.020Z,26.53
2018-12-16T22:47:26.874Z,25.57
2018-12-16T22:49:56.790Z,26.20
2018-12-16T22:52:26.650Z,26.80
2018-12-16T22:54:56.583Z,25.37
2018-12-16T22:57:26.931Z,26.03
2018-12-16T22:59:57.467Z,24.43
2018-12-16T23:02:28.138Z,27.97
2018-12-16T23:04:58.303Z,25.03
2018-12-16T23:07:28.746Z,27.87
2018-12-16T23:09:58.636Z,26.37
2018-12-16T23:12:30.902Z,26.50
2018-12-16T23:15:01.015Z,26.33
2018-12-16T23:17:31.058Z,26.03
2018-12-16T23:20:06.416Z,26.23
2018-12-16T23:22:36.557Z,26.70
2018-12-16T23:25:06.321Z,27.47
2018-12-16T23:27:35.603Z,28.20
2018-12-16T23:30:05.374Z,26.30
2018-12-16T23:32:34.637Z,26.83
2018-12-16T23:35:04.079Z,28.33
2018-12-16T23:37:33.333Z,26.00
2018-12-16T23:40:02.634Z,25.10
2018-12-16T23:42:38.495Z,25.60
2018-12-16T23:45:09.258Z,27.90
2018-12-16T23:47:38.551Z,28.33
2018-12-16T23:50:08.075Z,27.47
2018-12-16T23:52:37.334Z,27.67
2018-12-16T23:55:06.770Z,25.83
2018-12-16T23:57:36.022Z,29.57
